sensor_id;sensor_type;location;lat;lon;timestamp;P1;durP1;ratioP1;P2;durP2;ratioP2
6414;SDS011;3240;48.790;9.210;2022-07-29T00:02:27;7.73;;;5.57;;
6414;SDS011;3240;48.790;9.210;2022-07-29T00:04:56;7.93;;;5.70;;
6414;SDS011;3240;48.790;9.210;2022-07-29T00:07:24;6.23;;;5.60;;
6414;SDS011;3240;48.790;9.210;2022-07-29T00:09:52;7.17;;;6.20;;
6414;SDS011;3240;48.790;9.210;2022-07-29T00:12:22;7.30;;;5.30;;
6414;SDS011;3240;48.790;9.210;2022-07-29T00:14:49;8.30;;;5.83;;
6414;SDS011;3240;48.790;9.210;2022-07-29T00:17:17;8.33;;;6.60;;
6414;SDS011;3240;48.790;9.210;2022-07-29T00:19:45;9.37;;;6.30;;
6414;SDS011;3240;48.790;9.210;2022-07-29T00:22:14;8.67;;;6.70;;
6414;SDS011;3240;48.790;9.210;2022-07-29T00:24:42;7.10;;;6.40;;
6414;SDS011;3240;48.790;9.210;2022-07-29T00:27:10;11.03;;;7.07;;
6414;SDS011;3240;48.790;9.210;2022-07-29T00:29:39;12.33;;;7.30;;
6414;SDS011;3240;48.790;9.210;2022-07-29T00:32:07;14.30;;;7.17;;
6414;SDS011;3240;48.790;9.210;2022-07-29T00:34:35;8.90;;;7.13;;
6414;SDS011;3240;48.790;9.210;2022-07-29T00:37:10;14.33;;;6.80;;
6414;SDS011;3240;48.790;9.210;2022-07-29T00:39:38;14.20;;;7.70;;
6414;SDS011;3240;48.790;9.210;2022-07-29T00:42:06;11.23;;;6.77;;
6414;SDS011;3240;48.790;9.210;2022-07-29T00:44:38;8.50;;;6.23;;
6414;SDS011;3240;48.790;9.210;2022-07-29T00:47:06;14.03;;;6.50;;
6414;SDS011;3240;48.790;9.210;2022-07-29T00:49:34;13.20;;;7.20;;
6414;SDS011;3240;48.790;9.210;2022-07-29T00:52:03;9.93;;;6.63;;
6414;SDS011;3240;48.790;9.210;2022-07-29T00:54:32;8.07;;;7.17;;
6414;SDS011;3240;48.790;9.210;2022-07-29T00:56:59;9.07;;;6.10;;
6414;SDS011;3240;48.790;9.210;2022-07-29T00:59:28;9.60;;;5.80;;
6414;SDS011;3240;48.790;9.210;2022-07-29T01:01:56;7.13;;;6.13;;
6414;SDS011;3240;48.790;9.210;2022-07-29T01:04:24;7.63;;;6.53;;
6414;SDS011;3240;48.790;9.210;2022-07-29T01:06:52;7.57;;;5.43;;
6414;SDS011;3240;48.790;9.210;2022-07-29T01:09:21;7.30;;;5.35;;
6414;SDS011;3240;48.790;9.210;2022-07-29T01:11:49;5.47;;;4.90;;
6414;SDS011;3240;48.790;9.210;2022-07-29T01:14:17;11.90;;;4.97;;
6414;SDS011;3240;48.790;9.210;2022-07-29T01:16:49;7.43;;;5.20;;
6414;SDS011;3240;48.790;9.210;2022-07-29T01:21:50;5.70;;;4.90;;
6414;SDS011;3240;48.790;9.210;2022-07-29T01:27:09;7.23;;;5.07;;
6414;SDS011;3240;48.790;9.210;2022-07-29T01:29:35;6.03;;;5.43;;
6414;SDS011;3240;48.790;9.210;2022-07-29T01:32:08;4.63;;;4.10;;
6414;SDS011;3240;48.790;9.210;2022-07-29T01:34:42;4.20;;;3.80;;
6414;SDS011;3240;48.790;9.210;2022-07-29T01:37:15;5.50;;;4.93;;
6414;SDS011;3240;48.790;9.210;2022-07-29T01:39:40;4.13;;;3.83;;
6414;SDS011;3240;48.790;9.210;2022-07-29T01:42:12;5.70;;;4.57;;
6414;SDS011;3240;48.790;9.210;2022-07-29T01:44:41;5.03;;;4.33;;
6414;SDS011;3240;48.790;9.210;2022-07-29T01:47:22;4.37;;;3.87;;
6414;SDS011;3240;48.790;9.210;2022-07-29T01:49:50;4.63;;;3.80;;
6414;SDS011;3240;48.790;9.210;2022-07-29T01:52:20;4.47;;;3.90;;
6414;SDS011;3240;48.790;9.210;2022-07-29T01:54:50;7.03;;;4.17;;
6414;SDS011;3240;48.790;9.210;2022-07-29T01:57:17;4.50;;;4.10;;
6414;SDS011;3240;48.790;9.210;2022-07-29T01:59:46;4.30;;;3.90;;
6414;SDS011;3240;48.790;9.210;2022-07-29T02:02:14;6.83;;;3.90;;
6414;SDS011;3240;48.790;9.210;2022-07-29T02:04:42;5.77;;;4.33;;
6414;SDS011;3240;48.790;9.210;2022-07-29T02:07:10;5.90;;;4.53;;
6414;SDS011;3240;48.790;9.210;2022-07-29T02:09:38;6.20;;;4.53;;
6414;SDS011;3240;48.790;9.210;2022-07-29T02:12:07;5.60;;;4.10;;
6414;SDS011;3240;48.790;9.210;2022-07-29T02:14:37;6.57;;;4.47;;
6414;SDS011;3240;48.790;9.210;2022-07-29T02:17:04;4.37;;;3.97;;
6414;SDS011;3240;48.790;9.210;2022-07-29T02:19:33;5.03;;;4.23;;
6414;SDS011;3240;48.790;9.210;2022-07-29T02:22:01;5.43;;;4.40;;
6414;SDS011;3240;48.790;9.210;2022-07-29T02:24:29;4.63;;;4.10;;
6414;SDS011;3240;48.790;9.210;2022-07-29T02:26:58;6.27;;;4.27;;
6414;SDS011;3240;48.790;9.210;2022-07-29T02:29:26;4.90;;;4.30;;
6414;SDS011;3240;48.790;9.210;2022-07-29T02:31:54;5.50;;;4.60;;
6414;SDS011;3240;48.790;9.210;2022-07-29T02:34:23;6.00;;;4.90;;
6414;SDS011;3240;48.790;9.210;2022-07-29T02:36:51;5.30;;;4.80;;
6414;SDS011;3240;48.790;9.210;2022-07-29T02:39:19;9.30;;;5.50;;
6414;SDS011;3240;48.790;9.210;2022-07-29T02:41:49;13.13;;;6.10;;
6414;SDS011;3240;48.790;9.210;2022-07-29T02:44:17;8.60;;;6.40;;
6414;SDS011;3240;48.790;9.210;2022-07-29T02:46:48;9.03;;;5.93;;
6414;SDS011;3240;48.790;9.210;2022-07-29T02:49:16;7.37;;;5.97;;
6414;SDS011;3240;48.790;9.210;2022-07-29T02:51:45;9.43;;;6.97;;
6414;SDS011;3240;48.790;9.210;2022-07-29T02:56:59;13.23;;;6.33;;
6414;SDS011;3240;48.790;9.210;2022-07-29T02:59:27;6.90;;;5.87;;
6414;SDS011;3240;48.790;9.210;2022-07-29T03:01:55;6.00;;;4.90;;
6414;SDS011;3240;48.790;9.210;2022-07-29T03:04:24;7.68;;;5.78;;
6414;SDS011;3240;48.790;9.210;2022-07-29T03:06:52;6.97;;;5.63;;
6414;SDS011;3240;48.790;9.210;2022-07-29T03:09:20;7.90;;;5.30;;
6414;SDS011;3240;48.790;9.210;2022-07-29T03:11:48;8.50;;;6.50;;
6414;SDS011;3240;48.790;9.210;2022-07-29T03:14:17;8.53;;;6.03;;
6414;SDS011;3240;48.790;9.210;2022-07-29T03:16:45;8.50;;;5.90;;
6414;SDS011;3240;48.790;9.210;2022-07-29T03:19:13;8.17;;;6.50;;
6414;SDS011;3240;48.790;9.210;2022-07-29T03:21:42;8.13;;;6.70;;
6414;SDS011;3240;48.790;9.210;2022-07-29T03:24:10;7.27;;;6.03;;
6414;SDS011;3240;48.790;9.210;2022-07-29T03:26:38;7.93;;;5.33;;
6414;SDS011;3240;48.790;9.210;2022-07-29T03:29:07;10.50;;;5.57;;
6414;SDS011;3240;48.790;9.210;2022-07-29T03:31:35;7.62;;;5.62;;
6414;SDS011;3240;48.790;9.210;2022-07-29T03:34:03;7.77;;;5.70;;
6414;SDS011;3240;48.790;9.210;2022-07-29T03:36:32;7.43;;;5.07;;
6414;SDS011;3240;48.790;9.210;2022-07-29T03:39:00;7.93;;;6.67;;
6414;SDS011;3240;48.790;9.210;2022-07-29T03:41:28;8.57;;;5.17;;
6414;SDS011;3240;48.790;9.210;2022-07-29T03:43:57;7.87;;;6.03;;
6414;SDS011;3240;48.790;9.210;2022-07-29T03:46:25;6.27;;;5.67;;
6414;SDS011;3240;48.790;9.210;2022-07-29T03:48:55;7.77;;;5.53;;
6414;SDS011;3240;48.790;9.210;2022-07-29T03:51:22;12.17;;;5.50;;
6414;SDS011;3240;48.790;9.210;2022-07-29T03:53:51;7.43;;;6.20;;
6414;SDS011;3240;48.790;9.210;2022-07-29T03:56:20;8.30;;;5.33;;
6414;SDS011;3240;48.790;9.210;2022-07-29T03:58:48;8.13;;;5.67;;
6414;SDS011;3240;48.790;9.210;2022-07-29T04:01:16;6.27;;;5.60;;
6414;SDS011;3240;48.790;9.210;2022-07-29T04:03:44;6.33;;;5.63;;
6414;SDS011;3240;48.790;9.210;2022-07-29T04:06:13;6.83;;;5.80;;
6414;SDS011;3240;48.790;9.210;2022-07-29T04:08:41;10.33;;;5.43;;
6414;SDS011;3240;48.790;9.210;2022-07-29T04:11:10;9.00;;;6.27;;
6414;SDS011;3240;48.790;9.210;2022-07-29T04:13:38;6.23;;;4.77;;
6414;SDS011;3240;48.790;9.210;2022-07-29T04:16:06;4.70;;;3.87;;
6414;SDS011;3240;48.790;9.210;2022-07-29T04:18:35;4.60;;;3.90;;
6414;SDS011;3240;48.790;9.210;2022-07-29T04:21:03;5.00;;;3.80;;
6414;SDS011;3240;48.790;9.210;2022-07-29T04:23:31;13.73;;;4.53;;
6414;SDS011;3240;48.790;9.210;2022-07-29T04:26:01;5.53;;;4.10;;
6414;SDS011;3240;48.790;9.210;2022-07-29T04:28:29;6.67;;;3.90;;
6414;SDS011;3240;48.790;9.210;2022-07-29T04:30:57;6.07;;;4.63;;
6414;SDS011;3240;48.790;9.210;2022-07-29T04:33:26;5.87;;;3.83;;
6414;SDS011;3240;48.790;9.210;2022-07-29T04:35:54;7.23;;;4.20;;
6414;SDS011;3240;48.790;9.210;2022-07-29T04:38:22;6.13;;;4.80;;
6414;SDS011;3240;48.790;9.210;2022-07-29T04:40:50;4.93;;;4.13;;
6414;SDS011;3240;48.790;9.210;2022-07-29T04:43:19;6.53;;;4.40;;
6414;SDS011;3240;48.790;9.210;2022-07-29T04:45:47;5.10;;;4.37;;
6414;SDS011;3240;48.790;9.210;2022-07-29T04:48:15;7.80;;;4.90;;
6414;SDS011;3240;48.790;9.210;2022-07-29T04:50:44;5.27;;;4.20;;
6414;SDS011;3240;48.790;9.210;2022-07-29T04:53:12;4.97;;;4.33;;
6414;SDS011;3240;48.790;9.210;2022-07-29T04:55:40;6.03;;;4.50;;
6414;SDS011;3240;48.790;9.210;2022-07-29T04:58:09;8.43;;;5.13;;
6414;SDS011;3240;48.790;9.210;2022-07-29T05:00:37;6.53;;;4.43;;
6414;SDS011;3240;48.790;9.210;2022-07-29T05:03:05;7.73;;;4.43;;
6414;SDS011;3240;48.790;9.210;2022-07-29T05:05:34;5.67;;;3.87;;
6414;SDS011;3240;48.790;9.210;2022-07-29T05:08:02;5.13;;;4.00;;
6414;SDS011;3240;48.790;9.210;2022-07-29T05:10:31;5.17;;;3.60;;
6414;SDS011;3240;48.790;9.210;2022-07-29T05:12:59;5.23;;;3.97;;
6414;SDS011;3240;48.790;9.210;2022-07-29T05:15:27;6.23;;;4.87;;
6414;SDS011;3240;48.790;9.210;2022-07-29T05:17:55;8.23;;;5.47;;
6414;SDS011;3240;48.790;9.210;2022-07-29T05:20:24;8.83;;;5.73;;
6414;SDS011;3240;48.790;9.210;2022-07-29T05:22:52;7.67;;;5.73;;
6414;SDS011;3240;48.790;9.210;2022-07-29T05:25:20;11.00;;;5.23;;
6414;SDS011;3240;48.790;9.210;2022-07-29T05:27:49;5.27;;;4.77;;
6414;SDS011;3240;48.790;9.210;2022-07-29T05:30:17;5.80;;;4.37;;
6414;SDS011;3240;48.790;9.210;2022-07-29T05:32:45;5.10;;;4.47;;
6414;SDS011;3240;48.790;9.210;2022-07-29T05:35:14;5.23;;;4.73;;
6414;SDS011;3240;48.790;9.210;2022-07-29T05:37:42;5.00;;;4.50;;
6414;SDS011;3240;48.790;9.210;2022-07-29T05:40:10;8.93;;;4.40;;
6414;SDS011;3240;48.790;9.210;2022-07-29T05:42:39;4.67;;;4.27;;
6414;SDS011;3240;48.790;9.210;2022-07-29T05:45:07;8.30;;;4.63;;
6414;SDS011;3240;48.790;9.210;2022-07-29T05:47:36;5.47;;;4.43;;
6414;SDS011;3240;48.790;9.210;2022-07-29T05:50:04;7.50;;;4.90;;
6414;SDS011;3240;48.790;9.210;2022-07-29T05:52:33;7.40;;;4.20;;
6414;SDS011;3240;48.790;9.210;2022-07-29T05:55:01;10.63;;;5.05;;
6414;SDS011;3240;48.790;9.210;2022-07-29T05:57:29;5.60;;;4.23;;
6414;SDS011;3240;48.790;9.210;2022-07-29T05:59:58;14.50;;;4.63;;
6414;SDS011;3240;48.790;9.210;2022-07-29T06:02:26;6.20;;;4.03;;
6414;SDS011;3240;48.790;9.210;2022-07-29T06:04:54;5.63;;;4.47;;
6414;SDS011;3240;48.790;9.210;2022-07-29T06:07:23;4.13;;;3.37;;
6414;SDS011;3240;48.790;9.210;2022-07-29T06:09:51;8.30;;;3.63;;
6414;SDS011;3240;48.790;9.210;2022-07-29T06:12:19;9.63;;;4.50;;
6414;SDS011;3240;48.790;9.210;2022-07-29T06:14:48;10.43;;;3.57;;
6414;SDS011;3240;48.790;9.210;2022-07-29T06:17:16;3.93;;;3.30;;
6414;SDS011;3240;48.790;9.210;2022-07-29T06:19:44;3.30;;;3.00;;
6414;SDS011;3240;48.790;9.210;2022-07-29T06:22:14;4.00;;;3.10;;
6414;SDS011;3240;48.790;9.210;2022-07-29T06:24:41;4.33;;;3.10;;
6414;SDS011;3240;48.790;9.210;2022-07-29T06:27:10;4.10;;;3.10;;
6414;SDS011;3240;48.790;9.210;2022-07-29T06:29:38;5.23;;;3.60;;
6414;SDS011;3240;48.790;9.210;2022-07-29T06:32:06;4.93;;;3.27;;
6414;SDS011;3240;48.790;9.210;2022-07-29T06:34:35;3.63;;;2.87;;
6414;SDS011;3240;48.790;9.210;2022-07-29T06:37:05;5.97;;;2.83;;
6414;SDS011;3240;48.790;9.210;2022-07-29T06:39:34;4.10;;;2.87;;
6414;SDS011;3240;48.790;9.210;2022-07-29T06:42:03;3.30;;;2.73;;
6414;SDS011;3240;48.790;9.210;2022-07-29T06:44:31;3.27;;;2.90;;
6414;SDS011;3240;48.790;9.210;2022-07-29T06:47:00;6.03;;;2.70;;
6414;SDS011;3240;48.790;9.210;2022-07-29T06:49:28;4.50;;;2.93;;
6414;SDS011;3240;48.790;9.210;2022-07-29T06:51:56;4.93;;;3.30;;
6414;SDS011;3240;48.790;9.210;2022-07-29T06:54:24;3.40;;;3.10;;
6414;SDS011;3240;48.790;9.210;2022-07-29T06:56:53;3.40;;;3.10;;
6414;SDS011;3240;48.790;9.210;2022-07-29T06:59:21;3.40;;;3.10;;
6414;SDS011;3240;48.790;9.210;2022-07-29T07:01:49;3.80;;;3.00;;
6414;SDS011;3240;48.790;9.210;2022-07-29T07:04:18;3.53;;;2.80;;
6414;SDS011;3240;48.790;9.210;2022-07-29T07:06:46;3.77;;;3.30;;
6414;SDS011;3240;48.790;9.210;2022-07-29T07:09:14;4.97;;;3.50;;
6414;SDS011;3240;48.790;9.210;2022-07-29T07:11:43;5.87;;;3.80;;
6414;SDS011;3240;48.790;9.210;2022-07-29T07:14:11;4.47;;;3.40;;
6414;SDS011;3240;48.790;9.210;2022-07-29T07:16:39;4.53;;;3.13;;
6414;SDS011;3240;48.790;9.210;2022-07-29T07:19:08;3.90;;;3.20;;
6414;SDS011;3240;48.790;9.210;2022-07-29T07:21:36;6.00;;;3.43;;
6414;SDS011;3240;48.790;9.210;2022-07-29T07:24:04;6.00;;;3.40;;
6414;SDS011;3240;48.790;9.210;2022-07-29T07:26:33;4.90;;;3.40;;
6414;SDS011;3240;48.790;9.210;2022-07-29T07:29:02;4.73;;;3.00;;
6414;SDS011;3240;48.790;9.210;2022-07-29T07:31:30;5.00;;;3.50;;
6414;SDS011;3240;48.790;9.210;2022-07-29T07:33:59;4.00;;;3.60;;
6414;SDS011;3240;48.790;9.210;2022-07-29T07:36:28;4.13;;;3.73;;
6414;SDS011;3240;48.790;9.210;2022-07-29T07:38:56;4.73;;;3.67;;
6414;SDS011;3240;48.790;9.210;2022-07-29T07:41:24;6.43;;;3.20;;
6414;SDS011;3240;48.790;9.210;2022-07-29T07:43:53;3.70;;;3.17;;
6414;SDS011;3240;48.790;9.210;2022-07-29T07:46:21;5.13;;;3.30;;
6414;SDS011;3240;48.790;9.210;2022-07-29T07:48:49;5.00;;;3.47;;
6414;SDS011;3240;48.790;9.210;2022-07-29T07:51:18;4.50;;;3.30;;
6414;SDS011;3240;48.790;9.210;2022-07-29T07:53:46;4.90;;;2.80;;
6414;SDS011;3240;48.790;9.210;2022-07-29T07:56:15;6.60;;;3.60;;
6414;SDS011;3240;48.790;9.210;2022-07-29T07:58:43;6.23;;;2.97;;
6414;SDS011;3240;48.790;9.210;2022-07-29T08:01:11;4.30;;;3.40;;
6414;SDS011;3240;48.790;9.210;2022-07-29T08:03:39;4.63;;;2.80;;
6414;SDS011;3240;48.790;9.210;2022-07-29T08:06:08;6.03;;;3.60;;
6414;SDS011;3240;48.790;9.210;2022-07-29T08:08:36;7.13;;;3.57;;
6414;SDS011;3240;48.790;9.210;2022-07-29T08:11:04;6.63;;;3.40;;
6414;SDS011;3240;48.790;9.210;2022-07-29T08:13:33;7.83;;;3.87;;
6414;SDS011;3240;48.790;9.210;2022-07-29T08:16:01;4.27;;;2.97;;
6414;SDS011;3240;48.790;9.210;2022-07-29T08:18:30;9.53;;;4.07;;
6414;SDS011;3240;48.790;9.210;2022-07-29T08:20:58;7.03;;;4.30;;
6414;SDS011;3240;48.790;9.210;2022-07-29T08:23:26;7.90;;;3.43;;
6414;SDS011;3240;48.790;9.210;2022-07-29T08:25:54;6.60;;;3.63;;
6414;SDS011;3240;48.790;9.210;2022-07-29T08:28:23;3.80;;;3.37;;
6414;SDS011;3240;48.790;9.210;2022-07-29T08:30:51;4.57;;;3.90;;
6414;SDS011;3240;48.790;9.210;2022-07-29T08:33:19;19.83;;;5.00;;
6414;SDS011;3240;48.790;9.210;2022-07-29T08:35:47;7.00;;;4.50;;
6414;SDS011;3240;48.790;9.210;2022-07-29T08:38:16;4.47;;;4.07;;
6414;SDS011;3240;48.790;9.210;2022-07-29T08:40:44;6.33;;;4.20;;
6414;SDS011;3240;48.790;9.210;2022-07-29T08:43:12;5.70;;;4.60;;
6414;SDS011;3240;48.790;9.210;2022-07-29T08:45:42;4.80;;;3.53;;
6414;SDS011;3240;48.790;9.210;2022-07-29T08:48:13;5.57;;;4.00;;
6414;SDS011;3240;48.790;9.210;2022-07-29T08:50:46;6.60;;;3.97;;
6414;SDS011;3240;48.790;9.210;2022-07-29T08:53:17;6.43;;;3.87;;
6414;SDS011;3240;48.790;9.210;2022-07-29T08:55:46;7.80;;;3.83;;
6414;SDS011;3240;48.790;9.210;2022-07-29T08:58:16;5.07;;;3.87;;
6414;SDS011;3240;48.790;9.210;2022-07-29T09:00:51;5.10;;;3.83;;
6414;SDS011;3240;48.790;9.210;2022-07-29T09:03:24;7.63;;;3.90;;
6414;SDS011;3240;48.790;9.210;2022-07-29T09:05:54;5.33;;;4.00;;
6414;SDS011;3240;48.790;9.210;2022-07-29T09:08:24;4.40;;;3.90;;
6414;SDS011;3240;48.790;9.210;2022-07-29T09:10:53;5.53;;;4.10;;
6414;SDS011;3240;48.790;9.210;2022-07-29T09:13:21;4.97;;;4.10;;
6414;SDS011;3240;48.790;9.210;2022-07-29T09:15:50;6.00;;;4.27;;
6414;SDS011;3240;48.790;9.210;2022-07-29T09:20:53;5.33;;;3.90;;
6414;SDS011;3240;48.790;9.210;2022-07-29T09:23:27;7.30;;;4.50;;
6414;SDS011;3240;48.790;9.210;2022-07-29T09:25:56;5.00;;;3.90;;
6414;SDS011;3240;48.790;9.210;2022-07-29T09:28:24;6.30;;;4.07;;
6414;SDS011;3240;48.790;9.210;2022-07-29T09:30:53;4.10;;;3.77;;
6414;SDS011;3240;48.790;9.210;2022-07-29T09:33:21;5.25;;;4.30;;
6414;SDS011;3240;48.790;9.210;2022-07-29T09:38:23;6.97;;;4.47;;
6414;SDS011;3240;48.790;9.210;2022-07-29T09:40:56;5.67;;;4.40;;
6414;SDS011;3240;48.790;9.210;2022-07-29T09:43:23;6.57;;;3.90;;
6414;SDS011;3240;48.790;9.210;2022-07-29T09:45:52;5.90;;;4.23;;
6414;SDS011;3240;48.790;9.210;2022-07-29T09:48:21;4.60;;;3.93;;
6414;SDS011;3240;48.790;9.210;2022-07-29T09:50:49;6.67;;;4.20;;
6414;SDS011;3240;48.790;9.210;2022-07-29T09:55:51;10.13;;;3.97;;
6414;SDS011;3240;48.790;9.210;2022-07-29T09:58:20;6.10;;;4.07;;
6414;SDS011;3240;48.790;9.210;2022-07-29T10:00:49;6.87;;;4.57;;
6414;SDS011;3240;48.790;9.210;2022-07-29T10:03:16;5.17;;;4.20;;
6414;SDS011;3240;48.790;9.210;2022-07-29T10:05:45;4.87;;;4.00;;
6414;SDS011;3240;48.790;9.210;2022-07-29T10:08:13;8.80;;;4.40;;
6414;SDS011;3240;48.790;9.210;2022-07-29T10:10:41;7.07;;;4.30;;
6414;SDS011;3240;48.790;9.210;2022-07-29T10:13:11;10.50;;;4.93;;
6414;SDS011;3240;48.790;9.210;2022-07-29T10:15:39;7.60;;;4.77;;
6414;SDS011;3240;48.790;9.210;2022-07-29T10:18:07;4.60;;;4.20;;
6414;SDS011;3240;48.790;9.210;2022-07-29T10:20:35;5.37;;;4.87;;
6414;SDS011;3240;48.790;9.210;2022-07-29T10:23:03;5.90;;;4.27;;
6414;SDS011;3240;48.790;9.210;2022-07-29T10:25:32;10.47;;;4.33;;
6414;SDS011;3240;48.790;9.210;2022-07-29T10:28:00;5.37;;;3.50;;
6414;SDS011;3240;48.790;9.210;2022-07-29T10:30:28;6.63;;;4.40;;
6414;SDS011;3240;48.790;9.210;2022-07-29T10:35:36;5.80;;;3.83;;
6414;SDS011;3240;48.790;9.210;2022-07-29T10:40:39;5.60;;;5.10;;
6414;SDS011;3240;48.790;9.210;2022-07-29T10:43:41;7.97;;;4.50;;
6414;SDS011;3240;48.790;9.210;2022-07-29T10:45:54;7.43;;;4.32;;
6414;SDS011;3240;48.790;9.210;2022-07-29T10:48:20;10.97;;;4.53;;
6414;SDS011;3240;48.790;9.210;2022-07-29T10:50:53;5.87;;;4.20;;
6414;SDS011;3240;48.790;9.210;2022-07-29T10:53:21;6.33;;;5.33;;
6414;SDS011;3240;48.790;9.210;2022-07-29T10:55:50;8.80;;;4.70;;
6414;SDS011;3240;48.790;9.210;2022-07-29T10:58:19;6.60;;;4.70;;
6414;SDS011;3240;48.790;9.210;2022-07-29T11:00:49;5.63;;;5.10;;
6414;SDS011;3240;48.790;9.210;2022-07-29T11:05:51;7.90;;;5.60;;
6414;SDS011;3240;48.790;9.210;2022-07-29T11:08:20;8.40;;;5.77;;
6414;SDS011;3240;48.790;9.210;2022-07-29T11:10:47;11.77;;;8.23;;
6414;SDS011;3240;48.790;9.210;2022-07-29T11:15:52;10.40;;;6.83;;
6414;SDS011;3240;48.790;9.210;2022-07-29T11:18:20;14.17;;;6.37;;
6414;SDS011;3240;48.790;9.210;2022-07-29T11:20:49;9.00;;;6.10;;
6414;SDS011;3240;48.790;9.210;2022-07-29T11:23:19;9.90;;;6.63;;
6414;SDS011;3240;48.790;9.210;2022-07-29T11:28:20;13.57;;;6.57;;
6414;SDS011;3240;48.790;9.210;2022-07-29T11:30:50;9.40;;;7.23;;
6414;SDS011;3240;48.790;9.210;2022-07-29T11:36:24;9.40;;;6.77;;
6414;SDS011;3240;48.790;9.210;2022-07-29T11:38:36;6.80;;;5.63;;
6414;SDS011;3240;48.790;9.210;2022-07-29T11:46:13;8.93;;;5.47;;
6414;SDS011;3240;48.790;9.210;2022-07-29T11:48:41;5.97;;;5.03;;
6414;SDS011;3240;48.790;9.210;2022-07-29T11:51:10;7.53;;;6.00;;
6414;SDS011;3240;48.790;9.210;2022-07-29T11:53:38;7.70;;;5.90;;
6414;SDS011;3240;48.790;9.210;2022-07-29T11:56:08;10.87;;;6.60;;
6414;SDS011;3240;48.790;9.210;2022-07-29T11:58:34;10.00;;;6.57;;
6414;SDS011;3240;48.790;9.210;2022-07-29T12:01:03;7.77;;;5.90;;
6414;SDS011;3240;48.790;9.210;2022-07-29T12:03:32;10.50;;;6.43;;
6414;SDS011;3240;48.790;9.210;2022-07-29T12:06:00;10.50;;;7.40;;
6414;SDS011;3240;48.790;9.210;2022-07-29T12:08:28;7.90;;;6.07;;
6414;SDS011;3240;48.790;9.210;2022-07-29T12:10:57;6.17;;;4.50;;
6414;SDS011;3240;48.790;9.210;2022-07-29T12:13:25;8.40;;;4.57;;
6414;SDS011;3240;48.790;9.210;2022-07-29T12:15:54;5.93;;;4.20;;
6414;SDS011;3240;48.790;9.210;2022-07-29T12:18:22;4.87;;;4.10;;
6414;SDS011;3240;48.790;9.210;2022-07-29T12:20:57;8.00;;;4.70;;
6414;SDS011;3240;48.790;9.210;2022-07-29T12:23:24;7.17;;;4.33;;
6414;SDS011;3240;48.790;9.210;2022-07-29T12:25:53;4.80;;;3.43;;
6414;SDS011;3240;48.790;9.210;2022-07-29T12:28:21;8.67;;;4.10;;
6414;SDS011;3240;48.790;9.210;2022-07-29T12:30:49;8.30;;;3.33;;
6414;SDS011;3240;48.790;9.210;2022-07-29T12:33:19;5.13;;;3.60;;
6414;SDS011;3240;48.790;9.210;2022-07-29T12:35:47;5.33;;;3.73;;
6414;SDS011;3240;48.790;9.210;2022-07-29T12:38:14;4.50;;;4.00;;
6414;SDS011;3240;48.790;9.210;2022-07-29T12:40:43;7.53;;;4.90;;
6414;SDS011;3240;48.790;9.210;2022-07-29T12:43:12;7.93;;;4.27;;
6414;SDS011;3240;48.790;9.210;2022-07-29T12:45:40;6.87;;;3.83;;
6414;SDS011;3240;48.790;9.210;2022-07-29T12:48:08;4.30;;;3.70;;
6414;SDS011;3240;48.790;9.210;2022-07-29T12:50:37;4.27;;;3.87;;
6414;SDS011;3240;48.790;9.210;2022-07-29T12:53:08;3.93;;;3.33;;
6414;SDS011;3240;48.790;9.210;2022-07-29T12:55:40;5.40;;;4.57;;
6414;SDS011;3240;48.790;9.210;2022-07-29T12:58:07;8.57;;;4.13;;
6414;SDS011;3240;48.790;9.210;2022-07-29T13:00:35;3.67;;;3.00;;
6414;SDS011;3240;48.790;9.210;2022-07-29T13:03:03;4.50;;;3.40;;
6414;SDS011;3240;48.790;9.210;2022-07-29T13:05:39;7.00;;;3.70;;
6414;SDS011;3240;48.790;9.210;2022-07-29T13:08:12;3.80;;;3.40;;
6414;SDS011;3240;48.790;9.210;2022-07-29T13:10:39;4.90;;;4.40;;
6414;SDS011;3240;48.790;9.210;2022-07-29T13:13:08;4.70;;;3.43;;
6414;SDS011;3240;48.790;9.210;2022-07-29T13:15:36;4.30;;;3.60;;
6414;SDS011;3240;48.790;9.210;2022-07-29T13:18:04;4.30;;;3.90;;
6414;SDS011;3240;48.790;9.210;2022-07-29T13:20:32;6.27;;;4.60;;
6414;SDS011;3240;48.790;9.210;2022-07-29T13:23:01;4.70;;;4.23;;
6414;SDS011;3240;48.790;9.210;2022-07-29T13:25:30;5.23;;;4.70;;
6414;SDS011;3240;48.790;9.210;2022-07-29T13:27:58;6.20;;;5.00;;
6414;SDS011;3240;48.790;9.210;2022-07-29T13:30:26;8.47;;;5.23;;
6414;SDS011;3240;48.790;9.210;2022-07-29T13:32:54;7.90;;;5.13;;
6414;SDS011;3240;48.790;9.210;2022-07-29T13:35:23;16.53;;;6.30;;
6414;SDS011;3240;48.790;9.210;2022-07-29T13:37:52;7.63;;;4.90;;
6414;SDS011;3240;48.790;9.210;2022-07-29T13:40:20;7.67;;;5.53;;
6414;SDS011;3240;48.790;9.210;2022-07-29T13:42:48;8.90;;;5.73;;
6414;SDS011;3240;48.790;9.210;2022-07-29T13:45:17;8.60;;;6.43;;
6414;SDS011;3240;48.790;9.210;2022-07-29T13:47:48;8.27;;;5.50;;
6414;SDS011;3240;48.790;9.210;2022-07-29T13:50:17;7.10;;;5.10;;
6414;SDS011;3240;48.790;9.210;2022-07-29T13:52:46;7.30;;;5.67;;
6414;SDS011;3240;48.790;9.210;2022-07-29T13:55:14;7.57;;;5.60;;
6414;SDS011;3240;48.790;9.210;2022-07-29T13:57:43;8.70;;;5.43;;
6414;SDS011;3240;48.790;9.210;2022-07-29T14:00:11;6.60;;;5.77;;
6414;SDS011;3240;48.790;9.210;2022-07-29T14:02:40;8.47;;;6.00;;
6414;SDS011;3240;48.790;9.210;2022-07-29T14:05:08;14.00;;;6.57;;
6414;SDS011;3240;48.790;9.210;2022-07-29T14:07:37;9.80;;;6.20;;
6414;SDS011;3240;48.790;9.210;2022-07-29T14:10:05;10.00;;;6.40;;
6414;SDS011;3240;48.790;9.210;2022-07-29T14:12:33;9.27;;;6.30;;
6414;SDS011;3240;48.790;9.210;2022-07-29T14:15:02;7.77;;;6.07;;
6414;SDS011;3240;48.790;9.210;2022-07-29T14:17:31;7.83;;;6.10;;
6414;SDS011;3240;48.790;9.210;2022-07-29T14:20:01;9.57;;;6.30;;
6414;SDS011;3240;48.790;9.210;2022-07-29T14:22:30;10.52;;;6.87;;
6414;SDS011;3240;48.790;9.210;2022-07-29T14:24:58;6.90;;;5.87;;
6414;SDS011;3240;48.790;9.210;2022-07-29T14:27:26;6.60;;;6.00;;
6414;SDS011;3240;48.790;9.210;2022-07-29T14:29:55;9.00;;;5.57;;
6414;SDS011;3240;48.790;9.210;2022-07-29T14:32:23;9.07;;;5.70;;
6414;SDS011;3240;48.790;9.210;2022-07-29T14:34:51;10.97;;;5.73;;
6414;SDS011;3240;48.790;9.210;2022-07-29T14:37:20;7.80;;;6.30;;
6414;SDS011;3240;48.790;9.210;2022-07-29T14:39:48;7.13;;;6.27;;
6414;SDS011;3240;48.790;9.210;2022-07-29T14:42:17;8.27;;;7.30;;
6414;SDS011;3240;48.790;9.210;2022-07-29T14:44:45;8.67;;;6.30;;
6414;SDS011;3240;48.790;9.210;2022-07-29T14:47:15;10.70;;;7.23;;
6414;SDS011;3240;48.790;9.210;2022-07-29T14:49:43;9.80;;;7.40;;
6414;SDS011;3240;48.790;9.210;2022-07-29T14:52:12;11.63;;;7.13;;
6414;SDS011;3240;48.790;9.210;2022-07-29T14:54:41;8.80;;;6.70;;
6414;SDS011;3240;48.790;9.210;2022-07-29T14:57:11;12.13;;;7.00;;
6414;SDS011;3240;48.790;9.210;2022-07-29T14:59:41;8.77;;;6.53;;
6414;SDS011;3240;48.790;9.210;2022-07-29T15:02:09;8.30;;;6.23;;
6414;SDS011;3240;48.790;9.210;2022-07-29T15:04:38;12.67;;;6.70;;
6414;SDS011;3240;48.790;9.210;2022-07-29T15:07:06;8.57;;;6.70;;
6414;SDS011;3240;48.790;9.210;2022-07-29T15:09:34;7.20;;;6.37;;
6414;SDS011;3240;48.790;9.210;2022-07-29T15:12:04;7.17;;;6.47;;
6414;SDS011;3240;48.790;9.210;2022-07-29T15:14:32;9.73;;;7.10;;
6414;SDS011;3240;48.790;9.210;2022-07-29T15:17:00;7.90;;;6.77;;
6414;SDS011;3240;48.790;9.210;2022-07-29T15:19:29;11.60;;;7.63;;
6414;SDS011;3240;48.790;9.210;2022-07-29T15:21:57;10.80;;;7.17;;
6414;SDS011;3240;48.790;9.210;2022-07-29T15:24:25;11.43;;;7.33;;
6414;SDS011;3240;48.790;9.210;2022-07-29T15:26:56;7.90;;;6.70;;
6414;SDS011;3240;48.790;9.210;2022-07-29T15:29:25;11.97;;;7.73;;
6414;SDS011;3240;48.790;9.210;2022-07-29T15:31:53;12.60;;;7.93;;
6414;SDS011;3240;48.790;9.210;2022-07-29T15:34:24;14.83;;;7.50;;
6414;SDS011;3240;48.790;9.210;2022-07-29T15:36:52;11.03;;;8.27;;
6414;SDS011;3240;48.790;9.210;2022-07-29T15:39:21;9.90;;;8.03;;
6414;SDS011;3240;48.790;9.210;2022-07-29T15:41:50;9.30;;;7.60;;
6414;SDS011;3240;48.790;9.210;2022-07-29T15:44:19;9.03;;;6.90;;
6414;SDS011;3240;48.790;9.210;2022-07-29T15:46:50;11.70;;;7.30;;
6414;SDS011;3240;48.790;9.210;2022-07-29T15:49:24;9.47;;;7.03;;
6414;SDS011;3240;48.790;9.210;2022-07-29T15:51:54;11.20;;;7.27;;
6414;SDS011;3240;48.790;9.210;2022-07-29T15:54:23;8.37;;;7.33;;
6414;SDS011;3240;48.790;9.210;2022-07-29T15:56:54;12.87;;;7.27;;
6414;SDS011;3240;48.790;9.210;2022-07-29T15:59:24;9.70;;;7.40;;